HKG weather

Hong Kong International Airport
Hong Kong, Hong Kong

Public forecast

Using degrees Celsius for public forecast. Weather courtesy of forecast.io.

Current aviation weather report (METAR) for Hong Kong International Airport

Retrieved 2019/10/22 00:30 UTC (22 minutes ago):

VHHH 220030Z 08009KT 9999 FEW020 26/19 Q1013 NOSIG

Aviation forecast (TAF) for Hong Kong International Airport

Retrieved 2019-10-22 00:21 UTC (31 minutes ago):

TAF VHHH 212300Z 2200/2306 10010KT 9999 FEW030 TX29/2206Z TX29/2306Z TN24/2222Z TEMPO 2200/2204 VRB05KT TEMPO 2204/2208 27010KT